createdAt,value
2022-11-01T00:01:40.289Z,100205.31
2022-11-01T00:04:43.078Z,100199.06
2022-11-01T00:07:46.104Z,100198.41
2022-11-01T00:10:49.202Z,100194.00
2022-11-01T00:13:52.147Z,100209.34
2022-11-01T00:16:56.739Z,100194.88
2022-11-01T00:19:59.468Z,100209.88
2022-11-01T00:23:03.165Z,100202.94
2022-11-01T00:26:07.267Z,100204.19
2022-11-01T00:29:10.234Z,100197.88
2022-11-01T00:32:14.631Z,100209.63
2022-11-01T00:35:17.642Z,100204.19
2022-11-01T00:38:21.162Z,100199.78
2022-11-01T00:41:23.934Z,100204.34
2022-11-01T00:44:26.791Z,100191.38
2022-11-01T00:47:30.806Z,100209.50
2022-11-01T00:50:33.550Z,100202.44
2022-11-01T00:53:36.398Z,100196.19
2022-11-01T00:56:39.654Z,100199.06
2022-11-01T00:59:42.768Z,100211.72
2022-11-01T01:02:47.233Z,100191.91
2022-11-01T01:05:50.883Z,100206.91
2022-11-01T01:08:53.602Z,100194.28
2022-11-01T01:11:56.687Z,100196.63
2022-11-01T01:14:59.460Z,100194.72
2022-11-01T01:18:03.908Z,100198.91
2022-11-01T01:21:07.368Z,100194.69
2022-11-01T01:24:10.671Z,100193.81
2022-11-01T01:27:13.537Z,100194.34
2022-11-01T01:30:17.520Z,100184.59
2022-11-01T01:33:21.811Z,100185.75
2022-11-01T01:36:24.763Z,100176.63
2022-11-01T01:39:27.460Z,100173.94
2022-11-01T01:42:33.026Z,100162.97
2022-11-01T01:45:39.138Z,100161.72
2022-11-01T01:48:46.056Z,100157.25
2022-11-01T01:51:49.129Z,100164.69
2022-11-01T01:54:53.109Z,100164.88
2022-11-01T01:57:58.737Z,100162.09
2022-11-01T02:01:01.645Z,100158.84
2022-11-01T02:04:10.454Z,100161.44
2022-11-01T02:07:13.526Z,100158.94
2022-11-01T02:10:17.991Z,100160.69
2022-11-01T02:13:20.933Z,100150.88
2022-11-01T02:16:44.864Z,100147.53
2022-11-01T02:20:17.396Z,100168.03
2022-11-01T02:23:45.150Z,100153.56
2022-11-01T02:27:03.271Z,100158.13
2022-11-01T02:30:16.258Z,100169.59
2022-11-01T02:33:30.146Z,100170.25
2022-11-01T02:36:40.265Z,100163.13
2022-11-01T02:39:51.268Z,100154.38
2022-11-01T02:42:58.666Z,100166.00
2022-11-01T02:46:24.595Z,100164.00
2022-11-01T02:49:32.457Z,100168.50
2022-11-01T02:52:38.239Z,100162.78
2022-11-01T02:55:42.127Z,100144.03
2022-11-01T02:58:46.669Z,100145.25
2022-11-01T03:01:57.830Z,100160.25
2022-11-01T03:05:02.898Z,100162.41
2022-11-01T03:08:09.192Z,100173.25
2022-11-01T03:11:15.815Z,100184.06
2022-11-01T03:14:27.732Z,100191.59
2022-11-01T03:17:34.278Z,100148.56
2022-11-01T03:20:49.192Z,100178.47
2022-11-01T03:23:57.459Z,100188.81
2022-11-01T03:27:05.304Z,100201.09
2022-11-01T03:30:11.889Z,100202.78
2022-11-01T03:33:16.744Z,100207.88
2022-11-01T03:36:25.005Z,100220.66
2022-11-01T03:39:32.724Z,100247.34
2022-11-01T03:42:38.145Z,100266.78
2022-11-01T03:45:42.806Z,100250.88
2022-11-01T03:48:45.882Z,100243.53
2022-11-01T03:51:49.975Z,100237.63
2022-11-01T03:54:53.052Z,100230.13
2022-11-01T03:57:57.907Z,100233.78
2022-11-01T04:01:01.068Z,100219.75
2022-11-01T04:04:04.060Z,100223.41
2022-11-01T04:07:08.545Z,100216.69
2022-11-01T04:10:12.158Z,100230.44
2022-11-01T04:13:15.235Z,100229.72
2022-11-01T04:16:35.861Z,100222.72
2022-11-01T04:19:56.984Z,100231.25
2022-11-01T04:23:01.582Z,100238.75
2022-11-01T04:26:06.207Z,100242.81
2022-11-01T04:29:08.938Z,100241.94
2022-11-01T04:32:12.068Z,100241.78
2022-11-01T04:35:14.936Z,100243.69
2022-11-01T04:38:19.539Z,100245.94
2022-11-01T04:41:23.598Z,100251.28
2022-11-01T04:44:26.672Z,100255.91
2022-11-01T04:47:29.397Z,100250.34
2022-11-01T04:50:33.084Z,100248.19
2022-11-01T04:53:37.212Z,100235.50
2022-11-01T04:56:40.249Z,100249.88
2022-11-01T04:59:42.977Z,100247.22
2022-11-01T05:02:46.025Z,100235.56
2022-11-01T05:05:49.337Z,100243.88
2022-11-01T05:08:55.367Z,100260.53
2022-11-01T05:11:58.514Z,100264.13
2022-11-01T05:15:01.225Z,100272.94
2022-11-01T05:18:04.068Z,100268.94
2022-11-01T05:21:06.982Z,100273.09
2022-11-01T05:24:11.582Z,100279.66
2022-11-01T05:27:14.285Z,100285.09
2022-11-01T05:30:17.751Z,100299.16
2022-11-01T05:33:20.468Z,100281.72
2022-11-01T05:36:23.471Z,100273.56
2022-11-01T05:39:27.516Z,100279.00
2022-11-01T05:42:30.224Z,100264.13
2022-11-01T05:45:33.079Z,100261.50
2022-11-01T05:48:36.299Z,100273.22
2022-11-01T05:51:39.785Z,100286.81
2022-11-01T05:54:43.862Z,100293.53
2022-11-01T06:00:50.640Z,100318.63
2022-11-01T06:03:53.813Z,100323.09
2022-11-01T06:06:56.548Z,100293.13
2022-11-01T06:10:01.025Z,100299.78
2022-11-01T06:13:04.578Z,100313.75
2022-11-01T06:16:08.209Z,100312.41
2022-11-01T06:19:11.289Z,100326.66
2022-11-01T06:22:14.381Z,100331.41
2022-11-01T06:25:18.873Z,100342.09
2022-11-01T06:28:21.734Z,100340.50
2022-11-01T06:31:24.729Z,100345.78
2022-11-01T06:34:27.540Z,100329.16
2022-11-01T06:37:30.269Z,100353.38
2022-11-01T06:40:34.432Z,100363.38
2022-11-01T06:43:37.161Z,100365.13
2022-11-01T06:46:40.230Z,100367.72
2022-11-01T06:49:43.442Z,100373.84
2022-11-01T06:52:46.137Z,100379.81
2022-11-01T06:55:50.646Z,100372.31
2022-11-01T06:58:53.824Z,100386.22
2022-11-01T07:01:56.856Z,100387.81
2022-11-01T07:04:59.618Z,100402.03
2022-11-01T07:08:03.645Z,100401.63
2022-11-01T07:11:07.918Z,100400.25
2022-11-01T07:14:11.357Z,100411.50
2022-11-01T07:17:14.378Z,100413.72
2022-11-01T07:20:17.102Z,100412.03
2022-11-01T07:23:20.377Z,100426.97
2022-11-01T07:26:24.958Z,100428.59
2022-11-01T07:29:27.990Z,100429.13
2022-11-01T07:32:30.692Z,100426.03
2022-11-01T07:35:34.698Z,100433.78
2022-11-01T07:38:37.543Z,100429.88
2022-11-01T07:41:42.380Z,100441.34
2022-11-01T07:44:45.813Z,100442.16
2022-11-01T07:47:48.984Z,100441.97
2022-11-01T07:50:51.691Z,100431.03
2022-11-01T07:53:54.876Z,100429.91
2022-11-01T07:56:58.972Z,100434.47
2022-11-01T08:00:01.985Z,100427.88
2022-11-01T08:03:07.472Z,100442.13
2022-11-01T08:06:10.534Z,100437.88
2022-11-01T08:09:13.270Z,100431.91
2022-11-01T08:12:17.869Z,100443.16
2022-11-01T08:15:20.715Z,100447.03
2022-11-01T08:18:24.913Z,100447.16
2022-11-01T08:21:27.706Z,100445.56
2022-11-01T08:24:30.361Z,100443.84
2022-11-01T08:27:35.376Z,100434.16
2022-11-01T08:30:40.165Z,100433.59
2022-11-01T08:33:42.857Z,100435.78
2022-11-01T08:36:45.541Z,100434.44
2022-11-01T08:39:48.536Z,100444.88
2022-11-01T08:42:52.597Z,100442.44
2022-11-01T08:45:55.381Z,100446.75
2022-11-01T08:49:00.640Z,100431.75
2022-11-01T08:52:03.939Z,100429.50
2022-11-01T08:55:07.985Z,100439.91
2022-11-01T08:58:12.186Z,100428.81
2022-11-01T09:01:14.980Z,100428.41
2022-11-01T09:04:18.025Z,100439.94
2022-11-01T09:07:21.171Z,100433.28
2022-11-01T09:10:24.215Z,100435.84
2022-11-01T09:13:29.060Z,100430.06
2022-11-01T09:16:33.181Z,100450.44
2022-11-01T09:19:36.409Z,100443.09
2022-11-01T09:22:39.164Z,100432.47
2022-11-01T09:25:41.994Z,100431.78
2022-11-01T09:28:46.530Z,100443.53
2022-11-01T09:31:52.195Z,100440.91
2022-11-01T09:34:57.867Z,100446.31
2022-11-01T09:38:01.913Z,100449.94
2022-11-01T09:41:08.808Z,100456.88
2022-11-01T09:44:17.536Z,100457.94
2022-11-01T09:47:24.569Z,100462.72
2022-11-01T09:50:30.140Z,100470.72
2022-11-01T09:53:33.073Z,100464.66
2022-11-01T09:56:41.956Z,100475.25
2022-11-01T09:59:56.517Z,100472.16
2022-11-01T10:03:30.091Z,100482.53
2022-11-01T10:06:39.013Z,100493.66
2022-11-01T10:09:53.258Z,100490.38
2022-11-01T10:13:05.097Z,100498.47
2022-11-01T10:16:16.279Z,100503.47
2022-11-01T10:19:22.747Z,100502.78
2022-11-01T10:22:31.595Z,100502.97
2022-11-01T10:25:38.518Z,100495.28
2022-11-01T10:28:48.646Z,100514.97
2022-11-01T10:31:54.943Z,100518.88
2022-11-01T10:35:01.895Z,100523.09
2022-11-01T10:38:24.944Z,100525.66
2022-11-01T10:41:39.281Z,100549.47
2022-11-01T10:44:46.601Z,100600.28
2022-11-01T10:47:58.697Z,100604.59
2022-11-01T10:51:05.355Z,100597.97
2022-11-01T10:54:16.395Z,100601.63
2022-11-01T10:57:31.775Z,100585.72
2022-11-01T11:00:38.665Z,100590.47
2022-11-01T11:03:45.418Z,100587.47
2022-11-01T11:06:48.399Z,100578.59
2022-11-01T11:09:51.342Z,100580.75
2022-11-01T11:12:59.463Z,100579.00
2022-11-01T11:16:05.575Z,100581.84
2022-11-01T11:19:22.534Z,100581.81
2022-11-01T11:22:26.498Z,100576.75
2022-11-01T11:25:35.110Z,100580.28
2022-11-01T11:28:44.245Z,100585.63
2022-11-01T11:31:47.117Z,100581.75
2022-11-01T11:34:57.305Z,100582.34
2022-11-01T11:38:02.492Z,100574.06
2022-11-01T11:41:06.384Z,100569.31
2022-11-01T11:44:39.881Z,100570.22
2022-11-01T11:47:42.714Z,100576.09
2022-11-01T11:50:47.001Z,100565.28
2022-11-01T11:54:22.081Z,100556.72
2022-11-01T11:57:27.504Z,100533.81
2022-11-01T12:00:32.871Z,100544.19
2022-11-01T12:03:47.361Z,100539.59
2022-11-01T12:06:51.820Z,100529.94
2022-11-01T12:09:58.633Z,100529.94
2022-11-01T12:13:02.522Z,100532.13
2022-11-01T12:16:20.125Z,100529.50
2022-11-01T12:19:25.888Z,100529.06
2022-11-01T12:22:34.392Z,100533.38
2022-11-01T12:25:38.091Z,100518.22
2022-11-01T12:28:45.107Z,100520.88
2022-11-01T12:31:49.497Z,100519.69
2022-11-01T12:34:56.643Z,100524.28
2022-11-01T12:38:29.012Z,100517.06
2022-11-01T12:41:40.370Z,100512.22
2022-11-01T12:44:48.724Z,100520.25
2022-11-01T12:47:57.266Z,100518.28
2022-11-01T12:51:05.771Z,100522.16
2022-11-01T12:54:16.266Z,100511.44
2022-11-01T12:57:19.708Z,100525.72
2022-11-01T13:00:22.646Z,100518.38
2022-11-01T13:03:39.439Z,100517.75
2022-11-01T13:07:03.056Z,100524.09
2022-11-01T13:10:15.493Z,100525.75
2022-11-01T13:13:24.307Z,100518.31
2022-11-01T13:16:32.844Z,100512.84
2022-11-01T13:19:43.138Z,100505.16
2022-11-01T13:22:55.167Z,100508.66
2022-11-01T13:26:04.282Z,100502.94
2022-11-01T13:29:13.427Z,100485.94
2022-11-01T13:32:25.393Z,100497.88
2022-11-01T13:35:49.341Z,100496.59
2022-11-01T13:38:59.722Z,100502.16
2022-11-01T13:42:09.998Z,100494.47
2022-11-01T13:45:33.278Z,100501.44
2022-11-01T13:48:45.850Z,100503.19
2022-11-01T13:51:56.679Z,100500.84
2022-11-01T13:55:07.400Z,100502.41
2022-11-01T13:58:19.247Z,100508.25
2022-11-01T14:01:31.989Z,100508.69
2022-11-01T14:04:38.979Z,100515.81
2022-11-01T14:08:13.008Z,100503.16
2022-11-01T14:11:45.952Z,100505.09
2022-11-01T14:14:55.928Z,100502.03
2022-11-01T14:18:08.609Z,100495.47
2022-11-01T14:21:28.992Z,100503.69
2022-11-01T14:24:35.290Z,100492.81
2022-11-01T14:27:40.679Z,100499.63
2022-11-01T14:30:46.740Z,100506.22
2022-11-01T14:33:49.612Z,100499.00
2022-11-01T14:36:54.950Z,100505.69
2022-11-01T14:40:05.046Z,100502.16
2022-11-01T14:43:17.988Z,100511.78
2022-11-01T14:46:25.427Z,100512.22
2022-11-01T14:49:34.647Z,100516.03
2022-11-01T14:52:43.107Z,100526.25
2022-11-01T14:55:46.048Z,100528.47
2022-11-01T14:58:49.305Z,100528.00
2022-11-01T15:02:02.037Z,100534.34
2022-11-01T15:05:12.223Z,100534.53
2022-11-01T15:08:38.952Z,100547.34
2022-11-01T15:11:41.807Z,100544.19
2022-11-01T15:14:47.476Z,100541.59
2022-11-01T15:17:58.546Z,100541.50
2022-11-01T15:21:02.223Z,100539.81
2022-11-01T15:24:05.322Z,100558.22
2022-11-01T15:27:15.070Z,100553.75
2022-11-01T15:30:22.645Z,100553.19
2022-11-01T15:33:30.986Z,100565.06
2022-11-01T15:36:36.909Z,100558.31
2022-11-01T15:39:39.644Z,100565.16
2022-11-01T15:42:48.852Z,100566.88
2022-11-01T15:45:55.389Z,100563.31
2022-11-01T15:49:02.417Z,100555.75
2022-11-01T15:52:08.733Z,100575.31
2022-11-01T15:55:19.363Z,100573.44
2022-11-01T15:58:26.226Z,100587.03
2022-11-01T16:01:29.241Z,100590.56
2022-11-01T16:04:50.690Z,100602.44
2022-11-01T16:07:53.978Z,100596.78
2022-11-01T16:10:57.344Z,100596.75
2022-11-01T16:14:03.156Z,100599.03
2022-11-01T16:17:09.833Z,100598.75
2022-11-01T16:20:31.859Z,100606.63
2022-11-01T16:23:34.963Z,100605.19
2022-11-01T16:26:54.030Z,100612.88
2022-11-01T16:29:56.905Z,100618.63
2022-11-01T16:33:08.664Z,100622.66
2022-11-01T16:36:35.244Z,100627.75
2022-11-01T16:39:37.986Z,100634.31
2022-11-01T16:42:41.020Z,100635.59
2022-11-01T16:45:43.713Z,100639.78
2022-11-01T16:48:52.743Z,100651.13
2022-11-01T16:51:57.242Z,100654.94
2022-11-01T16:58:08.049Z,100661.28
2022-11-01T17:01:19.958Z,100670.13
2022-11-01T17:04:23.342Z,100684.09
2022-11-01T17:07:27.920Z,100687.13
2022-11-01T17:10:30.973Z,100682.13
2022-11-01T17:13:34.045Z,100690.53
2022-11-01T17:16:38.229Z,100689.06
2022-11-01T17:19:44.524Z,100692.03
2022-11-01T17:22:50.937Z,100693.28
2022-11-01T17:25:56.325Z,100708.09
2022-11-01T17:28:59.420Z,100702.09
2022-11-01T17:32:04.430Z,100710.59
2022-11-01T17:35:07.949Z,100723.56
2022-11-01T17:38:16.370Z,100721.38
2022-11-01T17:41:21.164Z,100723.41
2022-11-01T17:44:24.074Z,100729.84
2022-11-01T17:47:27.360Z,100731.41
2022-11-01T17:50:30.118Z,100742.59
2022-11-01T17:53:34.737Z,100734.84
2022-11-01T17:56:37.409Z,100728.66
2022-11-01T17:59:40.809Z,100738.88
2022-11-01T18:02:44.235Z,100743.69
2022-11-01T18:05:47.370Z,100748.50
2022-11-01T18:08:54.014Z,100742.44
2022-11-01T18:12:05.621Z,100750.91
2022-11-01T18:15:18.229Z,100754.63
2022-11-01T18:18:45.434Z,100763.03
2022-11-01T18:21:57.183Z,100757.84
2022-11-01T18:25:06.332Z,100766.19
2022-11-01T18:28:13.623Z,100774.59
2022-11-01T18:31:23.476Z,100779.31
2022-11-01T18:34:34.622Z,100770.59
2022-11-01T18:37:43.231Z,100770.69
2022-11-01T18:40:55.615Z,100770.94
2022-11-01T18:43:58.900Z,100770.13
2022-11-01T18:47:06.215Z,100775.81
2022-11-01T18:50:21.112Z,100744.06
2022-11-01T18:53:25.119Z,100764.75
2022-11-01T18:56:30.545Z,100782.56
2022-11-01T18:59:35.577Z,100778.22
2022-11-01T19:02:39.908Z,100785.56
2022-11-01T19:05:43.584Z,100773.19
2022-11-01T19:08:52.578Z,100757.75
2022-11-01T19:12:00.738Z,100793.41
2022-11-01T19:15:09.116Z,100790.91
2022-11-01T19:18:18.959Z,100800.09
2022-11-01T19:21:25.339Z,100789.34
2022-11-01T19:24:33.205Z,100797.63
2022-11-01T19:27:37.319Z,100805.81
2022-11-01T19:30:40.125Z,100802.28
2022-11-01T19:33:46.057Z,100797.88
2022-11-01T19:36:50.149Z,100803.44
2022-11-01T19:39:54.311Z,100798.09
2022-11-01T19:43:00.962Z,100810.00
2022-11-01T19:46:03.956Z,100810.19
2022-11-01T19:49:20.357Z,100810.41
2022-11-01T19:52:27.248Z,100806.03
2022-11-01T19:55:41.020Z,100809.72
2022-11-01T19:58:47.112Z,100793.13
2022-11-01T20:01:50.426Z,100828.97
2022-11-01T20:04:58.443Z,100819.28
2022-11-01T20:08:14.292Z,100812.31
2022-11-01T20:11:17.517Z,100822.28
2022-11-01T20:14:21.650Z,100826.91
2022-11-01T20:17:24.541Z,100820.69
2022-11-01T20:20:27.237Z,100825.38
2022-11-01T20:23:30.648Z,100817.38
2022-11-01T20:26:33.655Z,100819.25
2022-11-01T20:29:37.689Z,100832.88
2022-11-01T20:32:40.729Z,100835.78
2022-11-01T20:35:43.882Z,100831.22
2022-11-01T20:38:46.729Z,100845.81
2022-11-01T20:41:49.477Z,100839.56
2022-11-01T20:44:53.604Z,100832.59
2022-11-01T20:47:57.260Z,100836.34
2022-11-01T20:51:00.091Z,100840.03
2022-11-01T20:54:03.586Z,100845.56
2022-11-01T20:57:12.283Z,100854.47
2022-11-01T21:00:19.972Z,100851.75
2022-11-01T21:03:24.487Z,100854.66
2022-11-01T21:06:32.213Z,100857.41
2022-11-01T21:09:39.675Z,100850.44
2022-11-01T21:12:47.504Z,100849.66
2022-11-01T21:15:52.419Z,100856.09
2022-11-01T21:18:59.466Z,100863.41
2022-11-01T21:22:02.856Z,100858.09
2022-11-01T21:25:20.466Z,100859.91
2022-11-01T21:28:29.077Z,100853.47
2022-11-01T21:31:35.676Z,100851.78
2022-11-01T21:34:38.696Z,100851.84
2022-11-01T21:37:41.700Z,100860.13
2022-11-01T21:40:44.486Z,100874.41
2022-11-01T21:43:47.210Z,100870.97
2022-11-01T21:46:53.032Z,100871.06
2022-11-01T21:49:56.060Z,100876.50
2022-11-01T21:52:58.786Z,100864.84
2022-11-01T21:56:02.290Z,100866.69
2022-11-01T21:59:05.249Z,100861.41
2022-11-01T22:02:12.309Z,100869.50
2022-11-01T22:05:15.436Z,100870.44
2022-11-01T22:08:18.295Z,100863.31
2022-11-01T22:11:23.771Z,100866.00
2022-11-01T22:14:26.621Z,100859.13
2022-11-01T22:17:30.766Z,100875.19
2022-11-01T22:20:33.875Z,100877.91
2022-11-01T22:23:36.546Z,100868.09
2022-11-01T22:26:39.860Z,100865.50
2022-11-01T22:29:42.652Z,100842.16
2022-11-01T22:32:47.060Z,100859.34
2022-11-01T22:35:49.739Z,100864.75
2022-11-01T22:38:56.259Z,100854.06
2022-11-01T22:41:59.008Z,100860.41
2022-11-01T22:45:01.763Z,100858.69
2022-11-01T22:48:15.398Z,100857.78
2022-11-01T22:51:24.967Z,100862.16
2022-11-01T22:54:33.299Z,100865.91
2022-11-01T22:57:42.767Z,100865.78
2022-11-01T23:00:47.511Z,100870.19
2022-11-01T23:03:53.977Z,100872.69
2022-11-01T23:07:02.238Z,100871.53
2022-11-01T23:10:08.088Z,100875.91
2022-11-01T23:13:35.114Z,100874.03
2022-11-01T23:16:42.653Z,100883.00
2022-11-01T23:19:47.269Z,100883.84
2022-11-01T23:22:50.204Z,100884.66
2022-11-01T23:25:54.281Z,100882.13
2022-11-01T23:28:58.921Z,100883.06
2022-11-01T23:32:02.048Z,100874.25
2022-11-01T23:35:14.046Z,100878.59
2022-11-01T23:38:21.050Z,100861.44
2022-11-01T23:41:26.912Z,100881.81
2022-11-01T23:44:31.900Z,100881.03
2022-11-01T23:47:38.288Z,100881.25
2022-11-01T23:50:42.818Z,100882.06
2022-11-01T23:53:47.240Z,100877.34
2022-11-01T23:56:50.014Z,100881.16
2022-11-01T23:59:53.665Z,100867.59
